Terminal Aerodrome Forecast
Issued by NWS La Crosse, WI

Home | Current Version | Previous Version | Text Only | Print | Product List | Glossary On
Versions: 1 2 3 4 5 6 7 8 9 10 11 12 13 14 15 16 17 18
000
FTUS43 KARX 221825 AAA
TAFRST
TAF AMD
KRST 221825Z 2218/2318 13008KT P6SM BKN035
      TEMPO 2218/2219 3SM TSRA BKN030CB
     FM222000 30007KT P6SM VCSH OVC040
     FM222200 36007KT 6SM SHRA OVC035
      TEMPO 2223/2303 2SM TSRA BR BKN025CB
     FM230300 34006KT P6SM VCSH BKN035
     FM230500 31010KT P6SM SCT060
     FM231500 31014G22KT P6SM SCT130=

USA.gov is the U.S. government's official web portal to all federal, state and local government web resources and services.